Weather at Witbank Airport

Public forecast

Using degrees Celsius for public forecast. Weather courtesy of forecast.io.

Closest aviation weather report (METAR) to Witbank Airport

Report is more than 6 hours old.

Closest report is Springs Airfield, 49.6 nm (91.9 km) WSW. Retrieved 2022/09/17 19:00 UTC (8 days ago):

FASI 171900Z AUTO 35002KT //// // ////// 16/02 Q1024

Closest aviation forecast (TAF) to Witbank Airport

Forecast is more than 12 hours old.

Closest forecast is Waterkloof Air Force Base, 52.4 nm (97.0 km) W. Retrieved 2019/01/10 07:00 UTC (4 years ago):

TAF FAWK 100800Z 1007/1018 33007KT 9999 SCT035 PROB30 TEMPO 1007/1009 -TSRA FEW035CB BECMG 1010/1012 CAVOK PROB30 TEMPO 1016/1018 VRB03KT SCT030 FEW035TCU TX30/1013Z TN25/1018Z